createdAt,value
2022-08-17T00:00:33.261Z,100621.19
2022-08-17T00:03:15.457Z,100613.88
2022-08-17T00:05:52.053Z,100617.66
2022-08-17T00:08:24.205Z,100614.91
2022-08-17T00:10:53.817Z,100613.06
2022-08-17T00:13:27.716Z,100613.34
2022-08-17T00:15:59.668Z,100611.38
2022-08-17T00:19:01.941Z,100610.75
2022-08-17T00:21:23.727Z,100610.50
2022-08-17T00:23:54.247Z,100603.47
2022-08-17T00:26:34.579Z,100609.56
2022-08-17T00:29:13.392Z,100598.97
2022-08-17T00:31:48.528Z,100594.38
2022-08-17T00:34:16.201Z,100605.06
2022-08-17T00:36:43.969Z,100600.59
2022-08-17T00:39:11.879Z,100603.16
2022-08-17T00:41:42.581Z,100601.53
2022-08-17T00:44:12.491Z,100604.91
2022-08-17T00:46:43.314Z,100598.78
2022-08-17T00:49:15.424Z,100598.78
2022-08-17T00:51:49.721Z,100591.72
2022-08-17T00:54:23.951Z,100590.84
2022-08-17T00:56:57.553Z,100594.81
2022-08-17T00:59:35.875Z,100602.75
2022-08-17T01:02:07.716Z,100595.84
2022-08-17T01:04:36.589Z,100595.97
2022-08-17T01:07:06.225Z,100599.50
2022-08-17T01:09:36.856Z,100605.50
2022-08-17T01:12:06.957Z,100603.69
2022-08-17T01:14:36.944Z,100609.19
2022-08-17T01:17:07.895Z,100603.03
2022-08-17T01:19:39.404Z,100610.09
2022-08-17T01:22:18.929Z,100606.72
2022-08-17T01:25:08.496Z,100614.81
2022-08-17T01:27:38.414Z,100610.19
2022-08-17T01:30:57.791Z,100616.44
2022-08-17T01:32:59.669Z,100620.22
2022-08-17T01:35:27.493Z,100622.88
2022-08-17T01:37:56.628Z,100615.97
2022-08-17T01:40:39.828Z,100609.03
2022-08-17T01:43:22.005Z,100616.19
2022-08-17T01:46:03.907Z,100615.31
2022-08-17T01:48:37.201Z,100623.16
2022-08-17T01:51:07.998Z,100618.06
2022-08-17T01:53:40.960Z,100616.50
2022-08-17T01:56:14.330Z,100620.06
2022-08-17T01:58:44.062Z,100613.09
2022-08-17T02:01:18.861Z,100614.72
2022-08-17T02:03:53.194Z,100612.22
2022-08-17T02:06:31.654Z,100607.91
2022-08-17T02:09:18.731Z,100607.16
2022-08-17T02:11:51.225Z,100600.88
2022-08-17T02:14:18.539Z,100602.78
2022-08-17T02:16:45.904Z,100605.56
2022-08-17T02:19:16.631Z,100607.59
2022-08-17T02:21:48.574Z,100613.63
2022-08-17T02:25:00.591Z,100606.56
2022-08-17T02:27:25.428Z,100607.50
2022-08-17T02:29:53.095Z,100603.84
2022-08-17T02:32:27.841Z,100612.06
2022-08-17T02:34:57.411Z,100609.47
2022-08-17T02:37:26.194Z,100609.66
2022-08-17T02:39:57.300Z,100606.72
2022-08-17T02:42:43.677Z,100613.28
2022-08-17T02:45:16.876Z,100607.16
2022-08-17T02:47:44.622Z,100611.69
2022-08-17T02:50:14.826Z,100608.28
2022-08-17T02:52:47.506Z,100604.91
2022-08-17T02:55:32.995Z,100600.44
2022-08-17T02:58:00.461Z,100612.03
2022-08-17T03:00:36.107Z,100604.97
2022-08-17T03:03:06.442Z,100598.00
2022-08-17T03:05:36.112Z,100607.41
2022-08-17T03:08:05.549Z,100612.41
2022-08-17T03:10:33.653Z,100615.34
2022-08-17T03:13:02.021Z,100616.13
2022-08-17T03:15:34.478Z,100610.00
2022-08-17T03:18:06.888Z,100602.16
2022-08-17T03:20:37.207Z,100599.75
2022-08-17T03:23:04.878Z,100596.88
2022-08-17T03:25:39.153Z,100591.75
2022-08-17T03:28:07.293Z,100587.38
2022-08-17T03:30:37.026Z,100587.50
2022-08-17T03:33:07.783Z,100586.09
2022-08-17T03:35:37.918Z,100577.88
2022-08-17T03:38:05.830Z,100569.19
2022-08-17T03:40:57.941Z,100558.44
2022-08-17T03:43:22.734Z,100569.25
2022-08-17T03:46:27.298Z,100572.97
2022-08-17T03:49:20.892Z,100574.72
2022-08-17T03:52:07.070Z,100581.81
2022-08-17T03:54:53.598Z,100589.03
2022-08-17T03:57:21.297Z,100596.03
2022-08-17T03:59:48.668Z,100604.06
2022-08-17T04:02:31.235Z,100603.34
2022-08-17T04:04:59.230Z,100606.63
2022-08-17T04:07:29.467Z,100598.94
2022-08-17T04:09:58.444Z,100606.31
2022-08-17T04:12:27.093Z,100608.28
2022-08-17T04:14:55.372Z,100606.28
2022-08-17T04:17:25.921Z,100604.91
2022-08-17T04:19:54.601Z,100593.56
2022-08-17T04:22:31.431Z,100586.50
2022-08-17T04:25:27.590Z,100586.66
2022-08-17T04:27:56.865Z,100591.59
2022-08-17T04:30:24.777Z,100599.50
2022-08-17T04:33:08.833Z,100590.56
2022-08-17T04:35:45.259Z,100593.38
2022-08-17T04:38:15.612Z,100597.69
2022-08-17T04:41:02.123Z,100592.44
2022-08-17T04:43:31.484Z,100600.50
2022-08-17T04:46:07.257Z,100608.41
2022-08-17T04:48:37.771Z,100602.94
2022-08-17T04:51:13.949Z,100602.34
2022-08-17T04:53:44.758Z,100606.63
2022-08-17T04:56:16.874Z,100612.88
2022-08-17T04:58:49.952Z,100616.47
2022-08-17T05:01:23.194Z,100611.16
2022-08-17T05:03:59.384Z,100605.84
2022-08-17T05:06:28.490Z,100614.63
2022-08-17T05:08:57.391Z,100611.22
2022-08-17T05:11:27.413Z,100607.81
2022-08-17T05:13:56.518Z,100612.09
2022-08-17T05:16:26.311Z,100617.59
2022-08-17T05:18:54.073Z,100619.53
2022-08-17T05:21:23.310Z,100612.59
2022-08-17T05:23:56.200Z,100617.00
2022-08-17T05:26:26.116Z,100614.34
2022-08-17T05:28:56.986Z,100618.91
2022-08-17T05:31:25.366Z,100618.91
2022-08-17T05:33:53.499Z,100613.53
2022-08-17T05:36:38.097Z,100624.25
2022-08-17T05:39:09.321Z,100623.31
2022-08-17T05:41:46.656Z,100620.53
2022-08-17T05:44:14.100Z,100623.84
2022-08-17T05:46:45.911Z,100619.41
2022-08-17T05:49:18.205Z,100621.19
2022-08-17T05:52:10.996Z,100619.25
2022-08-17T05:54:51.773Z,100614.94
2022-08-17T05:57:58.447Z,100616.72
2022-08-17T06:01:03.970Z,100613.94
2022-08-17T06:04:26.909Z,100622.53
2022-08-17T06:07:19.260Z,100622.66
2022-08-17T06:09:53.545Z,100623.06
2022-08-17T06:12:39.322Z,100617.28
2022-08-17T06:15:26.617Z,100612.59
2022-08-17T06:18:02.104Z,100602.16
2022-08-17T06:20:38.876Z,100602.03
2022-08-17T06:23:14.782Z,100600.16
2022-08-17T06:25:56.483Z,100594.81
2022-08-17T06:28:50.989Z,100601.53
2022-08-17T06:31:27.855Z,100602.81
2022-08-17T06:33:58.423Z,100605.28
2022-08-17T06:37:01.849Z,100604.44
2022-08-17T06:39:54.581Z,100608.66
2022-08-17T06:43:05.150Z,100612.28
2022-08-17T06:45:39.579Z,100602.94
2022-08-17T06:48:24.702Z,100591.75
2022-08-17T06:51:00.388Z,100599.13
2022-08-17T06:53:43.236Z,100606.69
2022-08-17T06:56:14.598Z,100602.44
2022-08-17T06:58:45.095Z,100602.44
2022-08-17T07:01:28.920Z,100603.81
2022-08-17T07:04:11.628Z,100607.94
2022-08-17T07:06:47.512Z,100605.47
2022-08-17T07:09:26.108Z,100600.56
2022-08-17T07:12:15.449Z,100610.72
2022-08-17T07:14:54.457Z,100612.00
2022-08-17T07:17:46.461Z,100622.47
2022-08-17T07:20:16.099Z,100619.38
2022-08-17T07:22:59.853Z,100628.97
2022-08-17T07:25:30.836Z,100624.22
2022-08-17T07:28:01.428Z,100638.41
2022-08-17T07:30:45.653Z,100640.13
2022-08-17T07:33:24.745Z,100647.47
2022-08-17T07:35:52.674Z,100642.59
2022-08-17T07:38:27.911Z,100636.53
2022-08-17T07:41:05.460Z,100643.91
2022-08-17T07:43:41.967Z,100633.13
2022-08-17T07:46:35.773Z,100624.47
2022-08-17T07:49:07.060Z,100629.28
2022-08-17T07:51:39.161Z,100625.94
2022-08-17T07:54:18.352Z,100617.22
2022-08-17T07:56:49.911Z,100629.13
2022-08-17T07:59:33.204Z,100627.03
2022-08-17T08:02:38.010Z,100625.22
2022-08-17T08:05:06.668Z,100618.88
2022-08-17T08:07:42.812Z,100617.22
2022-08-17T08:10:25.566Z,100637.06
2022-08-17T08:13:16.002Z,100620.91
2022-08-17T08:15:56.131Z,100595.31
2022-08-17T08:18:55.662Z,100618.00
2022-08-17T08:21:47.889Z,100611.59
2022-08-17T08:24:16.672Z,100612.38
2022-08-17T08:27:01.964Z,100614.25
2022-08-17T08:29:43.220Z,100616.94
2022-08-17T08:32:28.790Z,100631.59
2022-08-17T08:35:12.923Z,100630.44
2022-08-17T08:37:59.119Z,100618.69
2022-08-17T08:40:36.415Z,100613.25
2022-08-17T08:43:32.049Z,100651.28
2022-08-17T08:46:19.642Z,100656.78
2022-08-17T08:49:11.950Z,100646.19
2022-08-17T08:51:58.514Z,100664.97
2022-08-17T08:55:10.525Z,100677.84
2022-08-17T08:58:04.644Z,100668.59
2022-08-17T09:00:39.385Z,100654.97
2022-08-17T09:03:50.883Z,100638.28
2022-08-17T09:06:59.210Z,100626.66
2022-08-17T09:09:35.860Z,100603.31
2022-08-17T09:12:17.857Z,100609.88
2022-08-17T09:15:01.990Z,100634.28
2022-08-17T09:19:01.043Z,100646.69
2022-08-17T09:21:18.210Z,100619.50
2022-08-17T09:24:10.850Z,100601.31
2022-08-17T09:27:06.952Z,100638.34
2022-08-17T09:29:39.475Z,100685.59
2022-08-17T09:32:23.020Z,100731.66
2022-08-17T09:34:55.494Z,100723.84
2022-08-17T09:38:02.187Z,100687.34
2022-08-17T09:40:54.786Z,100687.53
2022-08-17T09:43:39.795Z,100685.94
2022-08-17T09:46:31.168Z,100663.34
2022-08-17T09:49:10.166Z,100644.53
2022-08-17T09:51:44.546Z,100653.25
2022-08-17T09:54:38.599Z,100665.66
2022-08-17T09:57:31.036Z,100664.72
2022-08-17T10:00:17.322Z,100657.31
2022-08-17T10:02:52.002Z,100645.47
2022-08-17T10:05:47.525Z,100658.16
2022-08-17T10:08:23.483Z,100665.09
2022-08-17T10:11:12.202Z,100662.88
2022-08-17T10:13:53.311Z,100668.66
2022-08-17T10:16:44.942Z,100687.53
2022-08-17T10:19:38.446Z,100671.03
2022-08-17T10:22:38.732Z,100655.81
2022-08-17T10:25:48.585Z,100651.28
2022-08-17T10:28:28.758Z,100666.78
2022-08-17T10:31:30.991Z,100670.69
2022-08-17T10:34:13.569Z,100657.41
2022-08-17T10:37:10.364Z,100644.41
2022-08-17T10:39:50.461Z,100620.38
2022-08-17T10:43:01.072Z,100614.38
2022-08-17T10:45:37.814Z,100619.50
2022-08-17T10:48:08.462Z,100615.31
2022-08-17T10:51:29.009Z,100620.41
2022-08-17T10:53:58.506Z,100621.78
2022-08-17T10:56:42.538Z,100607.94
2022-08-17T10:59:10.299Z,100605.84
2022-08-17T11:01:43.620Z,100607.69
2022-08-17T11:04:32.738Z,100588.44
2022-08-17T11:07:37.690Z,100584.25
2022-08-17T11:10:37.778Z,100579.47
2022-08-17T11:13:46.465Z,100590.59
2022-08-17T11:16:51.389Z,100589.91
2022-08-17T11:19:42.291Z,100574.13
2022-08-17T11:22:22.233Z,100552.06
2022-08-17T11:24:53.855Z,100545.13
2022-08-17T11:27:30.140Z,100543.50
2022-08-17T11:30:04.700Z,100546.97
2022-08-17T11:32:47.100Z,100557.63
2022-08-17T11:35:21.784Z,100561.25
2022-08-17T11:38:28.486Z,100554.44
2022-08-17T11:41:41.330Z,100549.88
2022-08-17T11:44:28.984Z,100553.28
2022-08-17T11:47:32.481Z,100557.09
2022-08-17T11:50:39.504Z,100564.56
2022-08-17T11:53:07.478Z,100561.13
2022-08-17T11:55:39.392Z,100562.19
2022-08-17T11:58:29.694Z,100564.66
2022-08-17T12:01:01.163Z,100572.72
2022-08-17T12:03:32.074Z,100571.63
2022-08-17T12:06:11.934Z,100562.47
2022-08-17T12:08:46.037Z,100571.41
2022-08-17T12:12:11.196Z,100564.03
2022-08-17T12:14:45.011Z,100573.09
2022-08-17T12:17:39.236Z,100565.00
2022-08-17T12:20:14.649Z,100566.53
2022-08-17T12:23:01.471Z,100551.69
2022-08-17T12:25:43.799Z,100573.06
2022-08-17T12:28:29.974Z,100568.47
2022-08-17T12:31:05.054Z,100573.69
2022-08-17T12:33:32.476Z,100573.41
2022-08-17T12:36:07.672Z,100575.78
2022-08-17T12:38:37.322Z,100573.09
2022-08-17T12:41:27.386Z,100573.38
2022-08-17T12:44:09.710Z,100571.03
2022-08-17T12:47:02.401Z,100574.06
2022-08-17T12:49:36.048Z,100567.22
2022-08-17T12:52:15.022Z,100576.75
2022-08-17T12:55:06.491Z,100588.72
2022-08-17T12:57:44.807Z,100588.41
2022-08-17T13:00:25.989Z,100591.94
2022-08-17T13:02:59.310Z,100591.13
2022-08-17T13:05:28.967Z,100586.81
2022-08-17T13:07:59.849Z,100590.09
2022-08-17T13:10:36.048Z,100594.75
2022-08-17T13:13:17.832Z,100587.28
2022-08-17T13:16:02.203Z,100589.13
2022-08-17T13:18:53.427Z,100586.56
2022-08-17T13:21:22.745Z,100598.59
2022-08-17T13:23:58.454Z,100600.69
2022-08-17T13:26:29.624Z,100602.91
2022-08-17T13:28:57.768Z,100607.84
2022-08-17T13:31:30.658Z,100600.13
2022-08-17T13:34:17.140Z,100615.75
2022-08-17T13:36:47.947Z,100615.38
2022-08-17T13:39:26.237Z,100606.13
2022-08-17T13:41:56.606Z,100602.44
2022-08-17T13:44:39.535Z,100609.69
2022-08-17T13:47:18.181Z,100611.41
2022-08-17T13:49:48.798Z,100612.47
2022-08-17T13:52:43.740Z,100619.28
2022-08-17T13:55:23.193Z,100621.94
2022-08-17T13:58:03.950Z,100628.66
2022-08-17T14:00:36.899Z,100625.63
2022-08-17T14:03:05.855Z,100625.78
2022-08-17T14:05:34.664Z,100632.53
2022-08-17T14:08:06.797Z,100617.41
2022-08-17T14:10:36.768Z,100619.69
2022-08-17T14:13:05.245Z,100626.88
2022-08-17T14:15:55.429Z,100632.28
2022-08-17T14:18:42.035Z,100627.22
2022-08-17T14:21:10.672Z,100628.84
2022-08-17T14:23:39.534Z,100624.28
2022-08-17T14:26:07.059Z,100633.81
2022-08-17T14:28:35.416Z,100640.88
2022-08-17T14:31:04.677Z,100642.00
2022-08-17T14:33:33.465Z,100627.34
2022-08-17T14:36:01.401Z,100624.06
2022-08-17T14:38:28.967Z,100619.59
2022-08-17T14:40:56.439Z,100618.41
2022-08-17T14:43:26.332Z,100629.22
2022-08-17T14:45:53.555Z,100621.31
2022-08-17T14:48:20.608Z,100619.19
2022-08-17T14:50:47.881Z,100616.84
2022-08-17T14:53:16.500Z,100619.41
2022-08-17T14:55:47.078Z,100617.56
2022-08-17T14:58:14.900Z,100613.13
2022-08-17T15:00:45.052Z,100617.03
2022-08-17T15:03:12.616Z,100617.22
2022-08-17T15:05:42.508Z,100613.47
2022-08-17T15:08:11.488Z,100619.63
2022-08-17T15:10:39.522Z,100618.00
2022-08-17T15:13:19.812Z,100606.81
2022-08-17T15:15:48.067Z,100611.00
2022-08-17T15:18:15.781Z,100616.09
2022-08-17T15:20:44.609Z,100617.84
2022-08-17T15:23:17.158Z,100619.63
2022-08-17T15:25:45.032Z,100619.09
2022-08-17T15:28:12.795Z,100633.78
2022-08-17T15:30:43.509Z,100630.25
2022-08-17T15:33:24.118Z,100632.38
2022-08-17T15:35:54.255Z,100636.44
2022-08-17T15:38:23.060Z,100644.50
2022-08-17T15:40:54.215Z,100646.66
2022-08-17T15:43:27.681Z,100656.34
2022-08-17T15:46:10.128Z,100666.88
2022-08-17T15:48:44.750Z,100669.13
2022-08-17T15:51:19.873Z,100679.31
2022-08-17T15:53:52.243Z,100681.88
2022-08-17T15:56:22.728Z,100680.94
2022-08-17T15:58:50.378Z,100677.50
2022-08-17T16:01:41.868Z,100673.97
2022-08-17T16:04:21.243Z,100682.47
2022-08-17T16:06:55.698Z,100677.16
2022-08-17T16:09:26.132Z,100681.13
2022-08-17T16:11:55.689Z,100688.22
2022-08-17T16:14:28.896Z,100692.69
2022-08-17T16:17:03.808Z,100679.50
2022-08-17T16:19:32.715Z,100678.09
2022-08-17T16:22:00.239Z,100673.59
2022-08-17T16:24:27.719Z,100670.13
2022-08-17T16:26:55.833Z,100667.56
2022-08-17T16:29:23.375Z,100669.97
2022-08-17T16:31:51.587Z,100681.31
2022-08-17T16:34:19.278Z,100680.91
2022-08-17T16:36:53.703Z,100678.56
2022-08-17T16:39:27.782Z,100675.69
2022-08-17T16:41:56.273Z,100670.19
2022-08-17T16:44:23.682Z,100672.78
2022-08-17T16:46:51.013Z,100667.19
2022-08-17T16:49:35.404Z,100675.53
2022-08-17T16:52:05.773Z,100673.88
2022-08-17T16:54:35.580Z,100676.72
2022-08-17T16:57:05.432Z,100689.66
2022-08-17T16:59:41.042Z,100679.97
2022-08-17T17:02:15.106Z,100689.53
2022-08-17T17:05:30.256Z,100697.28
2022-08-17T17:08:19.000Z,100702.34
2022-08-17T17:10:51.031Z,100710.25
2022-08-17T17:13:21.206Z,100713.13
2022-08-17T17:16:19.715Z,100709.34
2022-08-17T17:19:06.801Z,100726.72
2022-08-17T17:21:58.056Z,100731.03
2022-08-17T17:24:30.679Z,100738.88
2022-08-17T17:27:17.289Z,100740.78
2022-08-17T17:29:59.768Z,100740.22
2022-08-17T17:32:51.809Z,100739.09
2022-08-17T17:35:40.670Z,100723.88
2022-08-17T17:38:17.152Z,100722.69
2022-08-17T17:40:50.758Z,100724.16
2022-08-17T17:43:38.203Z,100723.66
2022-08-17T17:46:27.333Z,100724.94
2022-08-17T17:48:57.879Z,100714.59
2022-08-17T17:51:54.994Z,100714.81
2022-08-17T17:54:34.125Z,100699.03
2022-08-17T17:57:07.144Z,100695.50
2022-08-17T17:59:44.205Z,100698.69
2022-08-17T18:02:52.012Z,100712.22
2022-08-17T18:05:44.449Z,100737.97
2022-08-17T18:08:47.581Z,100757.41
2022-08-17T18:11:34.806Z,100782.16
2022-08-17T18:14:17.670Z,100777.59
2022-08-17T18:16:46.651Z,100781.28
2022-08-17T18:19:16.252Z,100792.75
2022-08-17T18:21:49.212Z,100807.63
2022-08-17T18:24:33.043Z,100826.06
2022-08-17T18:27:08.689Z,100846.06
2022-08-17T18:29:44.459Z,100851.94
2022-08-17T18:32:14.321Z,100833.78
2022-08-17T18:34:49.709Z,100816.38
2022-08-17T18:37:50.615Z,100821.75
2022-08-17T18:40:20.659Z,100834.34
2022-08-17T18:42:54.068Z,100841.06
2022-08-17T18:45:35.915Z,100851.06
2022-08-17T18:48:03.729Z,100853.72
2022-08-17T18:50:45.030Z,100858.59
2022-08-17T18:53:39.852Z,100846.09
2022-08-17T18:56:30.687Z,100856.34
2022-08-17T18:59:07.301Z,100848.19
2022-08-17T19:02:21.622Z,100819.69
2022-08-17T19:05:11.340Z,100837.88
2022-08-17T19:07:48.300Z,100822.41
2022-08-17T19:10:31.930Z,100815.50
2022-08-17T19:13:24.138Z,100819.50
2022-08-17T19:16:11.741Z,100842.06
2022-08-17T19:18:58.109Z,100833.91
2022-08-17T19:21:43.846Z,100846.34
2022-08-17T19:24:25.590Z,100825.75
2022-08-17T19:27:34.778Z,100822.13
2022-08-17T19:30:14.087Z,100843.13
2022-08-17T19:32:41.486Z,100844.53
2022-08-17T19:35:16.794Z,100818.47
2022-08-17T19:37:56.653Z,100817.91
2022-08-17T19:40:53.996Z,100818.19
2022-08-17T19:43:27.587Z,100842.06
2022-08-17T19:46:11.365Z,100854.63
2022-08-17T19:48:45.715Z,100876.13
2022-08-17T19:51:20.778Z,100893.69
2022-08-17T19:54:05.528Z,100906.47
2022-08-17T19:56:47.799Z,100907.50
2022-08-17T19:59:36.012Z,100903.47
2022-08-17T20:02:22.428Z,100908.34
2022-08-17T20:04:51.251Z,100911.41
2022-08-17T20:07:32.084Z,100910.22
2022-08-17T20:10:13.983Z,100947.41
2022-08-17T20:12:44.889Z,100984.63
2022-08-17T20:15:26.029Z,101006.63
2022-08-17T20:17:57.405Z,101003.50
2022-08-17T20:20:30.881Z,101017.66
2022-08-17T20:23:30.934Z,100998.66
2022-08-17T20:26:13.818Z,100988.66
2022-08-17T20:29:05.671Z,100988.22
2022-08-17T20:31:55.576Z,100983.72
2022-08-17T20:34:37.348Z,100982.06
2022-08-17T20:37:08.616Z,100991.41
2022-08-17T20:39:40.522Z,100981.63
2022-08-17T20:42:22.706Z,100976.03
2022-08-17T20:44:58.194Z,100983.97
2022-08-17T20:48:00.846Z,100988.19
2022-08-17T20:50:41.788Z,100989.81
2022-08-17T20:53:15.022Z,100979.94
2022-08-17T20:55:51.910Z,100948.47
2022-08-17T20:58:23.359Z,100943.59
2022-08-17T21:00:56.645Z,100948.44
2022-08-17T21:03:24.293Z,100936.81
2022-08-17T21:06:24.908Z,100920.66
2022-08-17T21:09:18.064Z,100923.09
2022-08-17T21:12:05.818Z,100917.53
2022-08-17T21:14:52.666Z,100925.69
2022-08-17T21:17:42.581Z,100950.25
2022-08-17T21:20:32.632Z,100937.19
2022-08-17T21:23:18.376Z,100929.16
2022-08-17T21:26:19.779Z,100919.59
2022-08-17T21:29:30.210Z,100939.34
2022-08-17T21:32:05.449Z,100939.28
2022-08-17T21:34:44.703Z,100954.34
2022-08-17T21:37:23.420Z,100943.72
2022-08-17T21:39:59.884Z,100936.97
2022-08-17T21:42:31.911Z,100935.91
2022-08-17T21:45:20.831Z,100934.06
2022-08-17T21:48:07.147Z,100936.03
2022-08-17T21:50:35.857Z,100938.66
2022-08-17T21:53:04.369Z,100945.31
2022-08-17T21:55:34.835Z,100947.34
2022-08-17T21:58:13.613Z,100937.59
2022-08-17T22:00:41.705Z,100936.06
2022-08-17T22:03:26.287Z,100935.44
2022-08-17T22:05:53.975Z,100933.34
2022-08-17T22:08:24.761Z,100933.56
2022-08-17T22:11:01.414Z,100941.56
2022-08-17T22:13:29.726Z,100947.22
2022-08-17T22:16:15.373Z,100964.63
2022-08-17T22:18:53.942Z,100971.59
2022-08-17T22:21:22.538Z,100971.50
2022-08-17T22:24:23.282Z,100976.69
2022-08-17T22:27:07.825Z,100975.72
2022-08-17T22:29:54.372Z,100971.25
2022-08-17T22:32:42.406Z,100973.16
2022-08-17T22:35:33.819Z,100969.25
2022-08-17T22:38:19.387Z,100992.91
2022-08-17T22:40:51.266Z,100995.66
2022-08-17T22:43:26.444Z,100994.75
2022-08-17T22:45:59.203Z,100994.03
2022-08-17T22:48:28.993Z,100998.56
2022-08-17T22:51:19.695Z,101007.00
2022-08-17T22:54:31.587Z,101018.81
2022-08-17T22:57:20.736Z,101026.34
2022-08-17T22:59:51.909Z,101019.72
2022-08-17T23:02:34.349Z,101019.97
2022-08-17T23:05:14.341Z,101015.88
2022-08-17T23:07:43.467Z,101025.25
2022-08-17T23:10:12.367Z,101045.38
2022-08-17T23:12:40.076Z,101066.72
2022-08-17T23:15:16.318Z,101090.69
2022-08-17T23:17:44.452Z,101111.25
2022-08-17T23:20:15.480Z,101125.78
2022-08-17T23:22:51.812Z,101148.94
2022-08-17T23:25:27.270Z,101144.75
2022-08-17T23:27:58.080Z,101129.44
2022-08-17T23:30:25.867Z,101123.00
2022-08-17T23:32:54.574Z,101111.28
2022-08-17T23:35:40.242Z,101109.59
2022-08-17T23:38:12.025Z,101113.06
2022-08-17T23:40:44.037Z,101109.44
2022-08-17T23:46:00.563Z,101096.28
2022-08-17T23:48:35.897Z,101087.63
2022-08-17T23:51:09.368Z,101088.50
2022-08-17T23:53:40.513Z,101080.53
2022-08-17T23:56:11.495Z,101085.75
2022-08-17T23:58:44.170Z,101079.50
